메인 페이지
METAR-TAF:

METAR-TAF

공항 :

히스로 공항

런던 / 히드로, 잉글랜드

위도: 51-29N, 경도: 000-27W, 고도: 24m

현재 날씨관측

예보는 23분 전, 09:20시(UTC)에 발표되었습니다.
8kt
온도 4°C
습도 87%
기압 1005 hPa
시정: 7000m
고도 900ft 상공 흐림

METAR: EGLL 210920Z AUTO 09008KT 7000 OVC009 04/02 Q1005 NOSIG

시각: 09:43 (09:43 UTC)

예보

예보는 4 시간 50분 전, 04:53시(UTC)에 발표되었습니다.
예보 대상 시간: 21일 06시부터 22일 12시까지 (UTC)
8kt
시정: 7000m
고도 1000ft 상공 구름 많음
일시적
21일 06시부터 22일 03시까지 (UTC)
고도 600ft 상공 구름 많음
확률 30% :
일시적
21일 06시부터 21일 22시까지 (UTC)
시정: 4500m
연무
일시적
21일 22시부터 22일 03시까지 (UTC)
시정: 4000m
소나기, 비
전환 중
22일 00시부터 22일 03시까지 (UTC)
시정 10km 이상
고도 2000ft 상공 구름 보통
확률 40% :
일시적
22일 03시부터 22일 12시까지 (UTC)
시정: 6000m
고도 1400ft 상공 구름 많음
소나기

TAF: EGLL 210453Z 2106/2212 09008KT 7000 BKN010 TEMPO 2106/2203 BKN006 PROB30 TEMPO 2106/2122 4500 HZ TEMPO 2122/2203 4000 SHRA RA BECMG 2200/2203 9999 SCT020 PROB40 TEMPO 2203/2212 6000 SHRA BKN014

4,000개 이상의 공항 관측 자료 및 예보 (METAR 및 TAF 보고).

지도상에서 검색 가능한 기상관측소가 노란 점과 빨간 점으로 표시되어 있습니다.

기상관측소 명을 보려면 표시 위로 마우스를 이동하세요.

날씨 관측과 예보를 보려면 클릭하세요.

지도 변경 : 확대하려면 엑스 표시가 있는 녹색 버튼, 축소하려면 빼기 표시가 있는 녹색 버튼, 다음 페이지의 지도를 보려면 녹색 화살표를 클릭하세요.


METAR-TAF: